Time;durP1;ratioP1;P1;durP2;ratioP2;P2;SDS_P1;SDS_P2;PMS_P1;PMS_P2;Temp;Humidity;BMP_temperature;BMP_pressure;BME280_temperature;BME280_humidity;BME280_pressure;Samples;Min_cycle;Max_cycle;Signal;HPM_P1;HPM_P2
2022/12/30 18:04:09;;;;;;;;;23.75;20.25;;;;;;;;5144397;27;13554;-69
2022/12/30 18:06:35;;;;;;;;;20.75;19.25;;;;;;;;5123830;27;13507;-69
2022/12/30 18:09:00;;;;;;;;;17.00;17.00;;;;;;;;5127310;27;8951;-69
2022/12/30 18:11:26;;;;;;;;;17.00;15.25;;;;;;;;5127422;27;8915;-70
2022/12/30 18:13:51;;;;;;;;;17.50;14.25;;;;;;;;5127606;27;8816;-69
2022/12/30 18:16:18;;;;;;;;;14.50;12.50;;;;;;;;5127278;27;8789;-69
2022/12/30 18:18:44;;;;;;;;;17.25;12.50;;;;;;;;5127365;27;8833;-69
2022/12/30 18:21:11;;;;;;;;;15.00;13.50;;;;;;;;5127015;27;11423;-69
2022/12/30 18:23:37;;;;;;;;;17.75;14.75;;;;;;;;5127003;27;8839;-73
2022/12/30 18:26:04;;;;;;;;;21.50;17.25;;;;;;;;5125319;27;11444;-67
2022/12/30 18:28:29;;;;;;;;;14.50;10.25;;;;;;;;5125156;27;11415;-68
2022/12/30 18:30:54;;;;;;;;;15.75;13.00;;;;;;;;5126470;27;11423;-69
2022/12/30 18:33:19;;;;;;;;;12.25;10.75;;;;;;;;5125475;27;8828;-69
2022/12/30 18:35:44;;;;;;;;;10.75;9.50;;;;;;;;5125545;27;8816;-70
2022/12/30 18:38:10;;;;;;;;;11.25;10.00;;;;;;;;5118830;27;8924;-69
2022/12/30 18:40:36;;;;;;;;;10.00;10.00;;;;;;;;5126189;27;8801;-67
2022/12/30 18:43:01;;;;;;;;;14.25;9.00;;;;;;;;5125704;27;8817;-68
2022/12/30 18:45:27;;;;;;;;;9.75;9.75;;;;;;;;5125634;27;12211;-68
2022/12/30 18:47:52;;;;;;;;;17.25;10.75;;;;;;;;5123227;27;8840;-69
2022/12/30 18:50:17;;;;;;;;;7.50;6.75;;;;;;;;5125522;27;8874;-68
2022/12/30 18:52:42;;;;;;;;;6.00;6.00;;;;;;;;5126407;27;8794;-68
2022/12/30 18:55:08;;;;;;;;;8.50;8.50;;;;;;;;5124734;27;8930;-67
2022/12/30 18:57:33;;;;;;;;;13.25;11.00;;;;;;;;5124292;27;8809;-66
2022/12/30 19:00:08;;;;;;;;;17.00;14.50;;;;;;;;5884684;22;8860;-64
2022/12/30 19:02:34;;;;;;;;;8.00;7.25;;;;;;;;5084021;28;8844;-66
2022/12/30 19:04:59;;;;;;;;;9.25;9.25;;;;;;;;5084222;28;12162;-66
2022/12/30 19:07:24;;;;;;;;;7.00;7.00;;;;;;;;5086198;28;8865;-66
2022/12/30 19:09:49;;;;;;;;;10.75;8.50;;;;;;;;5085884;28;9751;-67
2022/12/30 19:12:15;;;;;;;;;9.00;8.50;;;;;;;;5073787;28;8818;-67
2022/12/30 19:14:40;;;;;;;;;6.00;6.00;;;;;;;;5068634;28;8854;-66
2022/12/30 19:17:05;;;;;;;;;6.50;6.50;;;;;;;;5071847;28;8918;-66
2022/12/30 19:19:31;;;;;;;;;8.00;6.50;;;;;;;;5071804;28;8859;-65
2022/12/30 19:21:57;;;;;;;;;9.25;5.00;;;;;;;;5071945;28;8819;-67
2022/12/30 19:24:22;;;;;;;;;8.50;7.00;;;;;;;;5055962;28;8833;-67
2022/12/30 19:26:47;;;;;;;;;5.00;5.00;;;;;;;;5051968;28;8961;-67
2022/12/30 19:29:13;;;;;;;;;4.00;3.00;;;;;;;;5017546;28;9599;-68
2022/12/30 19:31:39;;;;;;;;;5.75;5.00;;;;;;;;5051374;28;8834;-65
2022/12/30 19:34:05;;;;;;;;;11.25;5.25;;;;;;;;5055036;28;8824;-66
2022/12/30 19:36:32;;;;;;;;;6.25;5.00;;;;;;;;5071702;28;8912;-67
2022/12/30 19:38:57;;;;;;;;;10.50;8.00;;;;;;;;5071768;28;11031;-67
2022/12/30 19:41:22;;;;;;;;;6.50;6.50;;;;;;;;5071725;28;11198;-74
2022/12/30 19:43:52;;;;;;;;;10.75;7.00;;;;;;;;5071724;28;8824;-67
2022/12/30 19:46:18;;;;;;;;;9.00;6.75;;;;;;;;5071462;28;8827;-67
2022/12/30 19:48:43;;;;;;;;;10.50;7.50;;;;;;;;5071333;28;11279;-68
2022/12/30 19:51:09;;;;;;;;;12.25;7.00;;;;;;;;5071600;28;8800;-67
2022/12/30 19:53:34;;;;;;;;;9.00;6.50;;;;;;;;5071481;28;8840;-68
2022/12/30 19:55:59;;;;;;;;;6.75;6.75;;;;;;;;5071572;28;8839;-69
2022/12/30 19:58:25;;;;;;;;;9.50;9.00;;;;;;;;5071523;28;8899;-70
2022/12/30 20:00:50;;;;;;;;;10.50;7.00;;;;;;;;5071025;28;8821;-69
2022/12/30 20:03:15;;;;;;;;;13.50;10.00;;;;;;;;5071423;28;8808;-70
2022/12/30 20:05:41;;;;;;;;;12.50;10.75;;;;;;;;5052997;28;9554;-68
2022/12/30 20:08:06;;;;;;;;;10.00;10.00;;;;;;;;5039107;28;8834;-69
2022/12/30 20:10:31;;;;;;;;;9.25;9.25;;;;;;;;5032459;28;8846;-69
2022/12/30 20:12:56;;;;;;;;;13.50;10.00;;;;;;;;5050955;28;8887;-69
2022/12/30 20:15:22;;;;;;;;;16.25;10.75;;;;;;;;5050907;28;8790;-69
2022/12/30 20:17:49;;;;;;;;;11.00;8.50;;;;;;;;5055167;28;8834;-67
2022/12/30 20:20:14;;;;;;;;;9.00;9.00;;;;;;;;5058369;28;8821;-68
2022/12/30 20:22:40;;;;;;;;;9.50;9.00;;;;;;;;5051021;28;11155;-68
2022/12/30 20:25:08;;;;;;;;;12.00;9.00;;;;;;;;5061768;28;8858;-69
2022/12/30 20:27:33;;;;;;;;;8.50;6.50;;;;;;;;5067672;28;8812;-68
2022/12/30 20:29:59;;;;;;;;;8.50;6.25;;;;;;;;5050731;28;11124;-70
2022/12/30 20:32:24;;;;;;;;;11.00;11.00;;;;;;;;5063823;28;8850;-71
2022/12/30 20:34:49;;;;;;;;;9.75;8.50;;;;;;;;5069028;28;8793;-68
2022/12/30 20:37:16;;;;;;;;;9.75;9.00;;;;;;;;5070209;28;8804;-68
2022/12/30 20:39:41;;;;;;;;;10.00;10.00;;;;;;;;5050811;28;8806;-69
2022/12/30 20:42:07;;;;;;;;;14.50;10.75;;;;;;;;5049635;28;11260;-70
2022/12/30 20:44:33;;;;;;;;;12.00;11.00;;;;;;;;5049086;28;8838;-71
2022/12/30 20:46:58;;;;;;;;;12.00;10.00;;;;;;;;5048573;28;8818;-69
2022/12/30 20:49:24;;;;;;;;;11.00;9.00;;;;;;;;5045789;28;11870;-69
2022/12/30 20:51:49;;;;;;;;;10.75;10.00;;;;;;;;5005293;28;11045;-68
2022/12/30 20:54:15;;;;;;;;;10.75;9.50;;;;;;;;5030441;28;8785;-67
2022/12/30 20:56:41;;;;;;;;;10.00;10.00;;;;;;;;5030449;28;8819;-67
2022/12/30 20:59:07;;;;;;;;;16.00;12.25;;;;;;;;5026430;28;11179;-67
2022/12/30 21:01:33;;;;;;;;;10.00;10.00;;;;;;;;5028591;28;8867;-68
2022/12/30 21:04:00;;;;;;;;;24.75;24.75;;;;;;;;5029510;28;8820;-68
2022/12/30 21:06:27;;;;;;;;;44.00;36.50;;;;;;;;5010450;28;11561;-69
2022/12/30 21:08:52;;;;;;;;;11.50;9.50;;;;;;;;4992796;28;12274;-69
2022/12/30 21:11:17;;;;;;;;;10.25;9.25;;;;;;;;5010294;28;11588;-69
2022/12/30 21:13:44;;;;;;;;;13.00;9.00;;;;;;;;5010175;28;8842;-69
2022/12/30 21:16:10;;;;;;;;;7.00;5.75;;;;;;;;5010644;28;9521;-69
2022/12/30 21:18:36;;;;;;;;;9.25;9.00;;;;;;;;5010215;28;11421;-69
2022/12/30 21:21:01;;;;;;;;;10.50;9.25;;;;;;;;5010258;28;8806;-69
2022/12/30 21:23:27;;;;;;;;;10.25;9.00;;;;;;;;5010608;28;8857;-68
2022/12/30 21:26:10;;;;;;;;;7.00;7.00;;;;;;;;5010254;28;8914;-68
2022/12/30 21:28:37;;;;;;;;;12.00;6.00;;;;;;;;5010053;28;8910;-69
2022/12/30 21:31:06;;;;;;;;;8.00;6.75;;;;;;;;5010240;28;11404;-69
2022/12/30 21:33:32;;;;;;;;;2.25;2.25;;;;;;;;5010469;28;11457;-69
2022/12/30 21:35:57;;;;;;;;;5.50;5.50;;;;;;;;5010250;28;11033;-69
2022/12/30 22:03:07;;;;;;;;;17.75;15.00;;;;;;;;5009507;28;12157;-66
2022/12/30 22:05:33;;;;;;;;;15.00;15.00;;;;;;;;5008849;28;11542;-67
2022/12/30 22:08:00;;;;;;;;;17.75;15.00;;;;;;;;4992026;28;11452;-66
2022/12/30 22:10:28;;;;;;;;;15.00;14.50;;;;;;;;5009414;28;11461;-66
2022/12/30 22:12:55;;;;;;;;;18.50;11.50;;;;;;;;5009112;28;11580;-66
2022/12/30 22:15:21;;;;;;;;;12.00;12.00;;;;;;;;5009372;28;11477;-66
2022/12/30 22:17:46;;;;;;;;;17.50;12.75;;;;;;;;5009242;28;12301;-66
2022/12/30 22:20:12;;;;;;;;;13.75;11.00;;;;;;;;5008037;28;11551;-66
2022/12/30 22:22:44;;;;;;;;;18.00;16.75;;;;;;;;5009421;28;8926;-66
2022/12/30 22:25:09;;;;;;;;;16.00;12.50;;;;;;;;5009639;28;9635;-66
2022/12/30 22:27:35;;;;;;;;;15.25;14.00;;;;;;;;5009196;28;11511;-66
2022/12/30 22:30:00;;;;;;;;;13.75;10.75;;;;;;;;5009013;28;8922;-66
2022/12/30 22:32:25;;;;;;;;;20.00;15.75;;;;;;;;5009541;28;8842;-66
2022/12/30 22:34:50;;;;;;;;;19.25;17.75;;;;;;;;5009319;28;8830;-66
2022/12/30 22:37:16;;;;;;;;;18.75;16.25;;;;;;;;5009080;28;8815;-65
2022/12/30 22:39:41;;;;;;;;;19.75;18.25;;;;;;;;5009218;28;8794;-66
2022/12/30 22:42:06;;;;;;;;;18.50;16.50;;;;;;;;5009130;28;8979;-66
2022/12/30 22:44:32;;;;;;;;;22.25;20.00;;;;;;;;5009092;28;8803;-66
2022/12/30 22:46:57;;;;;;;;;26.25;22.00;;;;;;;;5009376;28;8925;-66
2022/12/30 22:49:22;;;;;;;;;26.00;18.75;;;;;;;;5010302;28;8823;-66
2022/12/30 22:51:47;;;;;;;;;23.00;21.50;;;;;;;;5011701;28;8895;-66
2022/12/30 22:54:13;;;;;;;;;5.50;5.25;;;;;;;;5011580;28;8814;-66
2022/12/30 22:56:38;;;;;;;;;19.50;16.00;;;;;;;;5012177;28;8802;-66
2022/12/30 22:59:03;;;;;;;;;15.75;13.25;;;;;;;;5011944;28;8806;-66
2022/12/30 23:01:28;;;;;;;;;15.00;12.00;;;;;;;;5011930;28;8916;-66
2022/12/30 23:03:55;;;;;;;;;13.00;11.50;;;;;;;;5011776;28;8822;-65
2022/12/30 23:06:20;;;;;;;;;16.00;12.50;;;;;;;;5011933;28;8815;-65
2022/12/30 23:08:45;;;;;;;;;13.00;10.00;;;;;;;;5012288;28;11439;-65
2022/12/30 23:11:14;;;;;;;;;12.75;10.50;;;;;;;;5012477;28;8821;-66
2022/12/30 23:16:24;;;;;;;;;15.75;15.00;;;;;;;;5012628;28;11401;-65
2022/12/30 23:18:49;;;;;;;;;13.50;13.25;;;;;;;;5012325;28;12285;-67
2022/12/30 23:21:22;;;;;;;;;16.25;14.00;;;;;;;;5012141;28;8818;-67
2022/12/30 23:26:32;;;;;;;;;17.00;15.00;;;;;;;;5012605;28;11542;-67
2022/12/30 23:28:58;;;;;;;;;11.25;10.50;;;;;;;;5012388;28;11566;-67
2022/12/30 23:31:24;;;;;;;;;14.50;14.25;;;;;;;;5012330;28;11595;-67
2022/12/30 23:33:49;;;;;;;;;17.25;13.25;;;;;;;;5012214;28;9650;-67
2022/12/30 23:36:15;;;;;;;;;24.00;19.50;;;;;;;;5011880;28;9591;-67
2022/12/30 23:38:41;;;;;;;;;19.50;17.75;;;;;;;;5012139;28;8815;-67
2022/12/30 23:41:07;;;;;;;;;15.25;14.75;;;;;;;;5012171;28;11434;-67
2022/12/30 23:43:32;;;;;;;;;16.50;14.00;;;;;;;;5012331;28;8817;-67
2022/12/30 23:45:57;;;;;;;;;19.25;15.00;;;;;;;;5012282;28;8810;-67
2022/12/30 23:48:25;;;;;;;;;19.00;19.00;;;;;;;;5011919;28;9619;-66
2022/12/30 23:50:50;;;;;;;;;16.00;15.00;;;;;;;;5011904;28;9521;-67
2022/12/30 23:53:15;;;;;;;;;16.50;15.25;;;;;;;;5011739;28;11585;-67
2022/12/30 23:55:41;;;;;;;;;19.25;18.75;;;;;;;;5011570;28;8815;-67
2022/12/30 23:58:07;;;;;;;;;19.00;17.00;;;;;;;;5012094;28;8913;-65
